Time;durP1;ratioP1;P1;durP2;ratioP2;P2;SDS_P1;SDS_P2;PMS_P1;PMS_P2;Temp;Humidity;BMP_temperature;BMP_pressure;BME280_temperature;BME280_humidity;BME280_pressure;Samples;Min_cycle;Max_cycle;Signal;HPM_P1;HPM_P2
2023/08/21 00:02:12;;;;;;;109.35;56.42;;;21.60;84.00;;;;;;4962943;28;92295;-76
2023/08/21 00:04:38;;;;;;;112.35;56.45;;;21.60;84.10;;;;;;4965049;28;90164;-77
2023/08/21 00:07:03;;;;;;;111.22;56.42;;;21.60;84.20;;;;;;4965507;28;92820;-77
2023/08/21 00:09:29;;;;;;;111.75;56.28;;;21.50;84.30;;;;;;4955983;28;90913;-74
2023/08/21 00:11:55;;;;;;;109.85;56.38;;;21.50;84.40;;;;;;4969413;28;91389;-73
2023/08/21 00:14:20;;;;;;;109.80;56.20;;;21.50;84.60;;;;;;4947273;28;90932;-77
2023/08/21 00:16:46;;;;;;;110.25;56.45;;;21.50;84.70;;;;;;4964106;28;89865;-78
2023/08/21 00:19:11;;;;;;;109.88;56.10;;;21.50;84.60;;;;;;4963400;28;94877;-77
2023/08/21 00:21:37;;;;;;;110.38;56.42;;;21.50;84.80;;;;;;4960035;28;91160;-76
2023/08/21 00:24:03;;;;;;;109.45;56.05;;;21.40;84.80;;;;;;4962419;28;90338;-74
2023/08/21 00:26:28;;;;;;;111.03;56.20;;;21.40;84.80;;;;;;4970209;28;92486;-77
2023/08/21 00:28:54;;;;;;;111.18;56.40;;;21.40;84.80;;;;;;4962114;28;90553;-78
2023/08/21 00:31:19;;;;;;;111.38;56.10;;;21.40;85.10;;;;;;4966210;28;89607;-75
2023/08/21 00:33:45;;;;;;;111.97;56.22;;;21.30;84.90;;;;;;4957369;28;93342;-77
2023/08/21 00:36:10;;;;;;;109.03;55.97;;;21.30;85.10;;;;;;4970216;28;90316;-77
2023/08/21 00:38:36;;;;;;;110.45;56.33;;;21.30;85.20;;;;;;4940151;28;93431;-73
2023/08/21 00:41:02;;;;;;;111.22;56.17;;;21.30;85.30;;;;;;4966489;28;91055;-74
2023/08/21 00:43:27;;;;;;;110.72;56.05;;;21.20;85.40;;;;;;4947750;28;91196;-77
2023/08/21 00:45:53;;;;;;;110.05;56.33;;;21.20;85.40;;;;;;4949309;28;90220;-77
2023/08/21 00:48:19;;;;;;;111.47;55.80;;;21.20;85.60;;;;;;4966454;28;94154;-77
2023/08/21 00:50:45;;;;;;;111.85;56.50;;;21.20;85.60;;;;;;4958608;28;92907;-75
2023/08/21 00:53:11;;;;;;;110.88;56.25;;;21.20;85.60;;;;;;4965963;28;90292;-76
2023/08/21 00:55:37;;;;;;;112.10;56.55;;;21.10;85.70;;;;;;4961032;28;89687;-74
2023/08/21 00:58:04;;;;;;;110.28;56.35;;;21.10;86.00;;;;;;4968015;28;93549;-77
2023/08/21 01:00:31;;;;;;;113.03;56.50;;;21.10;86.10;;;;;;4958209;28;90273;-73
2023/08/21 01:02:56;;;;;;;111.03;56.17;;;21.10;86.10;;;;;;4948719;28;92071;-75
2023/08/21 01:05:23;;;;;;;109.55;56.22;;;21.00;86.90;;;;;;4965278;28;91427;-78
2023/08/21 01:08:08;;;;;;;110.03;56.22;;;21.00;86.30;;;;;;4946400;28;91190;-77
2023/08/21 01:10:51;;;;;;;110.18;56.08;;;21.00;86.30;;;;;;4947544;28;90453;-75
2023/08/21 01:13:36;;;;;;;110.30;55.78;;;20.90;86.50;;;;;;4966163;28;92784;-75
2023/08/21 01:16:05;;;;;;;110.40;55.83;;;20.90;86.60;;;;;;4958452;28;90909;-75
2023/08/21 01:18:33;;;;;;;110.50;56.42;;;20.90;86.70;;;;;;4951565;28;90949;-73
2023/08/21 01:20:59;;;;;;;108.90;55.70;;;20.90;86.60;;;;;;4962918;28;89570;-73
2023/08/21 01:23:29;;;;;;;110.43;56.05;;;20.80;86.80;;;;;;4965673;28;92330;-72
2023/08/21 01:25:54;;;;;;;109.43;56.22;;;20.80;87.20;;;;;;4969266;28;91412;-73
2023/08/21 01:28:20;;;;;;;109.18;56.33;;;20.80;86.90;;;;;;4965528;28;94645;-77
2023/08/21 01:30:47;;;;;;;109.20;56.05;;;20.80;87.10;;;;;;4965903;28;90052;-78
2023/08/21 01:33:16;;;;;;;109.45;55.83;;;20.80;87.10;;;;;;4961241;28;90310;-76
2023/08/21 01:35:42;;;;;;;110.60;55.72;;;20.70;87.30;;;;;;4968198;28;89559;-77
2023/08/21 01:38:07;;;;;;;110.40;56.22;;;20.70;87.30;;;;;;4960206;28;92033;-78
2023/08/21 01:40:33;;;;;;;109.45;55.70;;;20.70;87.30;;;;;;4948646;28;90865;-73
2023/08/21 01:42:59;;;;;;;109.50;55.88;;;20.70;88.00;;;;;;4965613;28;90510;-77
2023/08/21 01:45:25;;;;;;;109.93;55.95;;;20.60;87.40;;;;;;4968292;28;89730;-77
2023/08/21 01:47:51;;;;;;;109.40;55.95;;;20.60;87.70;;;;;;4956584;28;90797;-74
2023/08/21 01:50:16;;;;;;;109.72;55.88;;;20.60;87.50;;;;;;4954820;28;91746;-73
2023/08/21 01:52:42;;;;;;;111.70;56.00;;;20.60;87.60;;;;;;4961590;28;92163;-76
2023/08/21 01:55:08;;;;;;;110.13;55.83;;;20.60;88.40;;;;;;4958494;28;91362;-76
2023/08/21 01:57:34;;;;;;;108.93;55.90;;;20.60;87.80;;;;;;4943822;28;90036;-77
2023/08/21 01:59:59;;;;;;;110.68;56.08;;;20.60;87.70;;;;;;4942552;28;90209;-75
2023/08/21 02:02:25;;;;;;;109.18;55.80;;;20.60;87.70;;;;;;4966126;28;90811;-78
2023/08/21 02:04:50;;;;;;;108.68;55.85;;;20.50;87.80;;;;;;4953538;28;90981;-77
2023/08/21 02:07:16;;;;;;;110.07;55.90;;;20.50;87.80;;;;;;4948873;28;93490;-75
2023/08/21 02:09:41;;;;;;;108.50;55.67;;;20.50;88.20;;;;;;4943520;28;91183;-77
2023/08/21 02:12:07;;;;;;;108.25;55.75;;;20.50;87.80;;;;;;4944987;28;90084;-77
2023/08/21 02:14:33;;;;;;;110.63;56.22;;;20.50;88.00;;;;;;4942461;28;90078;-77
2023/08/21 02:16:58;;;;;;;109.22;55.85;;;20.40;88.20;;;;;;4942589;28;90984;-74
2023/08/21 02:19:24;;;;;;;110.15;55.95;;;20.40;88.00;;;;;;4942596;28;92424;-78
2023/08/21 02:21:49;;;;;;;110.30;55.92;;;20.40;88.20;;;;;;4940903;28;89990;-74
2023/08/21 02:24:15;;;;;;;108.78;55.53;;;20.40;89.10;;;;;;4940269;28;91759;-78
2023/08/21 02:26:42;;;;;;;109.10;55.67;;;20.40;88.20;;;;;;4943067;28;90203;-74
2023/08/21 02:29:08;;;;;;;110.53;55.67;;;20.40;88.40;;;;;;4942921;28;94482;-78
2023/08/21 02:31:34;;;;;;;109.32;56.05;;;20.40;88.40;;;;;;4939730;28;90426;-73
2023/08/21 02:34:00;;;;;;;109.20;55.92;;;20.30;88.80;;;;;;4947499;28;89467;-74
2023/08/21 02:36:25;;;;;;;108.97;56.03;;;20.30;88.40;;;;;;4941516;28;92060;-74
2023/08/21 02:38:51;;;;;;;110.72;55.72;;;20.30;88.70;;;;;;4960353;28;94459;-73
2023/08/21 02:41:18;;;;;;;108.45;55.88;;;20.20;88.60;;;;;;4943758;28;90914;-76
2023/08/21 02:43:43;;;;;;;108.90;55.60;;;20.20;88.60;;;;;;4942166;28;89899;-79
2023/08/21 02:46:09;;;;;;;109.43;55.95;;;20.20;88.90;;;;;;4940377;28;89985;-77
2023/08/21 02:48:35;;;;;;;109.78;55.75;;;20.20;88.80;;;;;;4943250;28;90645;-77
2023/08/21 02:51:02;;;;;;;108.82;55.75;;;20.20;88.80;;;;;;4945938;28;90830;-78
2023/08/21 02:53:28;;;;;;;110.47;55.85;;;20.10;89.00;;;;;;4940114;28;90366;-74
2023/08/21 02:55:53;;;;;;;108.15;55.80;;;20.10;89.80;;;;;;4935394;28;90509;-77
2023/08/21 02:58:19;;;;;;;108.55;55.45;;;20.10;88.90;;;;;;4950234;28;89829;-74
2023/08/21 03:00:44;;;;;;;109.70;55.90;;;20.10;89.40;;;;;;4944374;28;90634;-74
2023/08/21 03:03:11;;;;;;;108.57;55.70;;;20.10;89.20;;;;;;4940033;28;90419;-79
2023/08/21 03:05:36;;;;;;;108.65;55.85;;;20.00;89.20;;;;;;4943223;28;92078;-77
2023/08/21 03:08:02;;;;;;;109.00;55.47;;;20.00;89.30;;;;;;4939176;28;91056;-77
2023/08/21 03:10:33;;;;;;;109.57;56.08;;;20.00;89.30;;;;;;4945881;28;93562;-76
2023/08/21 03:12:58;;;;;;;109.90;55.78;;;20.00;89.30;;;;;;4963332;28;90754;-77
2023/08/21 03:15:24;;;;;;;109.53;55.88;;;20.00;89.50;;;;;;4963176;28;91763;-74
2023/08/21 03:17:49;;;;;;;108.78;55.95;;;20.00;89.60;;;;;;4968300;28;89602;-78
2023/08/21 03:20:17;;;;;;;107.97;55.85;;;19.90;89.40;;;;;;4945820;28;89717;-76
2023/08/21 03:22:43;;;;;;;109.88;55.70;;;19.90;89.40;;;;;;4968535;28;89282;-77
2023/08/21 03:25:09;;;;;;;108.82;55.80;;;19.90;89.60;;;;;;4941011;28;90938;-78
2023/08/21 03:27:39;;;;;;;108.28;55.95;;;19.90;89.80;;;;;;4969114;28;89466;-78
2023/08/21 03:30:06;;;;;;;108.00;55.50;;;19.90;89.70;;;;;;4944949;28;92784;-78
2023/08/21 03:32:33;;;;;;;108.88;55.42;;;19.90;89.90;;;;;;4967408;28;94258;-74
2023/08/21 03:34:59;;;;;;;110.50;56.03;;;19.80;89.70;;;;;;4962027;28;94259;-75
2023/08/21 03:37:24;;;;;;;108.45;55.50;;;19.80;90.00;;;;;;4966725;28;90229;-78
2023/08/21 03:39:50;;;;;;;108.30;56.03;;;19.80;90.00;;;;;;4949490;28;90966;-74
2023/08/21 03:42:16;;;;;;;110.10;55.75;;;19.80;90.00;;;;;;4965041;28;90175;-74
2023/08/21 03:44:41;;;;;;;109.90;55.85;;;19.80;90.00;;;;;;4948378;28;93500;-78
2023/08/21 03:47:07;;;;;;;107.63;55.47;;;19.80;90.00;;;;;;4963188;28;90571;-74
2023/08/21 03:49:33;;;;;;;107.63;55.60;;;19.80;90.00;;;;;;4962855;28;91231;-77
2023/08/21 03:51:58;;;;;;;109.70;55.55;;;19.80;90.00;;;;;;4958514;28;90903;-76
2023/08/21 03:54:24;;;;;;;109.55;55.78;;;19.70;90.10;;;;;;4970025;28;91392;-74
2023/08/21 03:56:50;;;;;;;110.10;55.53;;;19.70;90.10;;;;;;4964627;28;95217;-77
2023/08/21 03:59:15;;;;;;;107.50;55.72;;;19.70;90.30;;;;;;4946822;28;91370;-73
2023/08/21 04:01:41;;;;;;;107.85;55.53;;;19.70;90.10;;;;;;4958778;28;89822;-76
2023/08/21 04:04:06;;;;;;;109.38;55.70;;;19.70;90.10;;;;;;4959190;28;90595;-73
2023/08/21 04:06:32;;;;;;;108.13;55.47;;;19.60;90.10;;;;;;4961114;28;92387;-73
2023/08/21 04:08:58;;;;;;;108.95;55.83;;;19.60;90.00;;;;;;4957382;28;91670;-77
2023/08/21 04:11:23;;;;;;;107.85;55.60;;;19.60;90.30;;;;;;4966410;28;91526;-77
2023/08/21 04:13:49;;;;;;;107.93;55.78;;;19.60;90.20;;;;;;4959485;28;95833;-74
2023/08/21 04:16:15;;;;;;;108.32;55.70;;;19.60;90.10;;;;;;4959934;28;91992;-77
2023/08/21 04:18:41;;;;;;;107.95;55.33;;;19.60;90.40;;;;;;4960103;28;94432;-77
2023/08/21 04:21:07;;;;;;;110.38;55.92;;;19.60;90.20;;;;;;4964601;28;90051;-74
2023/08/21 04:23:33;;;;;;;107.97;55.53;;;19.60;90.20;;;;;;4961138;28;90427;-75
2023/08/21 04:26:03;;;;;;;107.70;55.58;;;19.60;90.60;;;;;;4966237;28;90418;-76
2023/08/21 04:28:30;;;;;;;108.68;55.63;;;19.60;90.20;;;;;;4959006;28;89862;-76
2023/08/21 04:30:57;;;;;;;107.22;55.33;;;19.60;90.20;;;;;;4964584;28;89821;-73
2023/08/21 04:33:24;;;;;;;109.10;55.80;;;19.50;90.20;;;;;;4948050;28;91548;-77
2023/08/21 04:35:50;;;;;;;109.55;55.63;;;19.50;90.20;;;;;;4948951;28;90394;-72
2023/08/21 04:38:15;;;;;;;107.28;55.38;;;19.50;90.30;;;;;;4961819;28;90389;-76
2023/08/21 04:40:41;;;;;;;108.70;55.58;;;19.50;90.30;;;;;;4961320;28;89814;-75
2023/08/21 04:43:07;;;;;;;107.72;55.42;;;19.50;90.30;;;;;;4947101;28;95214;-74
2023/08/21 04:45:33;;;;;;;109.47;55.55;;;19.40;90.50;;;;;;4965811;28;89951;-74
2023/08/21 04:47:58;;;;;;;108.65;55.60;;;19.40;90.40;;;;;;4967081;28;90051;-76
2023/08/21 04:50:24;;;;;;;108.70;55.53;;;19.50;90.70;;;;;;4964384;28;90774;-78
2023/08/21 04:52:50;;;;;;;109.85;55.70;;;19.40;90.30;;;;;;4965960;28;91079;-76
2023/08/21 04:55:16;;;;;;;107.57;55.53;;;19.40;90.40;;;;;;4957570;28;91344;-73
2023/08/21 04:57:41;;;;;;;108.00;55.30;;;19.40;90.40;;;;;;4949387;28;90264;-77
2023/08/21 05:00:09;;;;;;;107.93;55.40;;;19.40;90.40;;;;;;4965846;28;89435;-78
2023/08/21 05:02:34;;;;;;;108.97;55.65;;;19.40;90.60;;;;;;4947067;28;92926;-74
2023/08/21 05:05:00;;;;;;;107.97;55.45;;;19.40;90.50;;;;;;4942026;28;94442;-76
2023/08/21 05:07:27;;;;;;;107.88;55.70;;;19.40;90.40;;;;;;4959541;28;92234;-73
2023/08/21 05:09:52;;;;;;;107.85;55.30;;;19.40;90.50;;;;;;4966428;28;91490;-75
2023/08/21 05:12:18;;;;;;;107.53;55.47;;;19.40;90.50;;;;;;4942556;28;90651;-76
2023/08/21 05:14:43;;;;;;;108.40;55.33;;;19.40;90.40;;;;;;4966268;28;91528;-77
2023/08/21 05:17:09;;;;;;;110.03;55.42;;;19.30;90.40;;;;;;4962829;28;91657;-75
2023/08/21 05:19:35;;;;;;;107.97;55.33;;;19.30;90.50;;;;;;4950005;28;90395;-76
2023/08/21 05:22:00;;;;;;;107.57;55.42;;;19.40;90.40;;;;;;4963039;28;90756;-77
2023/08/21 05:24:26;;;;;;;107.22;55.15;;;19.30;90.40;;;;;;4970274;28;90931;-74
2023/08/21 05:26:51;;;;;;;107.88;55.83;;;19.30;90.40;;;;;;4961289;28;90141;-78
2023/08/21 05:29:17;;;;;;;107.53;55.58;;;19.40;90.50;;;;;;4953293;28;89592;-75
2023/08/21 05:31:43;;;;;;;108.13;55.65;;;19.40;90.40;;;;;;4967629;28;90953;-75
2023/08/21 05:34:08;;;;;;;107.95;55.65;;;19.40;90.40;;;;;;4947246;28;90244;-77
2023/08/21 05:36:34;;;;;;;108.25;55.47;;;19.40;90.50;;;;;;4965862;28;90368;-77
2023/08/21 05:39:05;;;;;;;107.95;55.58;;;19.40;90.40;;;;;;4965498;28;90717;-77
2023/08/21 05:41:31;;;;;;;109.65;55.72;;;19.40;90.40;;;;;;4966276;28;90027;-76
2023/08/21 05:43:57;;;;;;;108.55;55.58;;;19.40;90.20;;;;;;4959773;28;91404;-74
2023/08/21 05:46:22;;;;;;;111.30;55.58;;;19.40;90.30;;;;;;4970802;28;93417;-75
2023/08/21 05:48:48;;;;;;;108.53;55.78;;;19.40;90.30;;;;;;4967224;28;93562;-72
2023/08/21 05:51:14;;;;;;;107.45;55.08;;;19.40;92.10;;;;;;4966839;28;89692;-73
2023/08/21 05:53:39;;;;;;;109.57;55.85;;;19.60;93.60;;;;;;4960710;28;94202;-72
2023/08/21 05:56:05;;;;;;;108.43;55.67;;;19.60;93.40;;;;;;4963953;28;90831;-73
2023/08/21 05:58:32;;;;;;;108.40;55.90;;;19.70;93.20;;;;;;4960938;28;90765;-73
2023/08/21 06:00:58;;;;;;;111.22;56.22;;;19.70;92.20;;;;;;4958779;28;91013;-76
2023/08/21 06:03:24;;;;;;;109.60;56.15;;;19.70;92.30;;;;;;4963481;28;91746;-76
2023/08/21 06:05:49;;;;;;;109.10;56.10;;;19.60;92.00;;;;;;4948706;28;90319;-76
2023/08/21 06:08:15;;;;;;;112.22;56.25;;;19.70;91.50;;;;;;4970158;28;89709;-78
2023/08/21 06:10:40;;;;;;;110.97;56.38;;;19.70;90.50;;;;;;4960078;28;92714;-75
2023/08/21 06:13:06;;;;;;;110.22;56.45;;;19.70;90.80;;;;;;4967003;28;89569;-76
2023/08/21 06:15:32;;;;;;;111.60;56.42;;;19.70;90.00;;;;;;4971420;28;89818;-74
2023/08/21 06:17:58;;;;;;;109.85;56.22;;;19.70;90.50;;;;;;4950244;28;91548;-74
2023/08/21 06:20:24;;;;;;;108.85;56.00;;;19.70;90.50;;;;;;4960633;28;91560;-75
2023/08/21 06:22:50;;;;;;;111.13;56.72;;;19.70;90.50;;;;;;4967310;28;90287;-78
2023/08/21 06:25:15;;;;;;;112.07;56.20;;;19.80;89.70;;;;;;4964251;28;91421;-76
2023/08/21 06:27:41;;;;;;;111.90;56.85;;;19.70;90.50;;;;;;4967179;28;89992;-77
2023/08/21 06:30:07;;;;;;;111.60;56.45;;;19.80;90.50;;;;;;4962732;28;94844;-76
2023/08/21 06:32:33;;;;;;;112.80;56.72;;;19.90;90.10;;;;;;4944210;28;90914;-75
2023/08/21 06:34:59;;;;;;;116.10;57.15;;;19.80;90.10;;;;;;4967630;28;90495;-78
2023/08/21 06:39:52;;;;;;;112.85;56.67;;;20.00;90.00;;;;;;4924511;28;90989;-49
2023/08/21 06:42:18;;;;;;;114.43;57.15;;;20.00;89.40;;;;;;4927062;28;89799;-45
2023/08/21 06:44:43;;;;;;;112.45;56.72;;;20.00;90.00;;;;;;4928499;28;90548;-45
2023/08/21 06:47:09;;;;;;;113.13;56.88;;;20.00;88.80;;;;;;4925436;28;92397;-48
2023/08/21 06:49:34;;;;;;;114.57;57.00;;;20.00;89.60;;;;;;4920082;28;89972;-45
2023/08/21 06:52:02;;;;;;;115.55;57.42;;;20.00;90.00;;;;;;4927803;28;89873;-47
2023/08/21 06:54:28;;;;;;;114.05;57.28;;;20.00;90.00;;;;;;4920540;28;89949;-45
2023/08/21 06:56:53;;;;;;;111.35;57.20;;;20.00;89.40;;;;;;4925435;28;93136;-43
2023/08/21 06:59:19;;;;;;;111.95;57.10;;;20.00;88.20;;;;;;4922216;28;91994;-47
2023/08/21 07:01:45;;;;;;;117.13;57.42;;;20.00;89.10;;;;;;4925873;28;88784;-49
2023/08/21 07:04:10;;;;;;;117.35;58.05;;;20.10;88.10;;;;;;4921422;28;90409;-50
2023/08/21 07:06:36;;;;;;;112.63;57.08;;;20.10;88.90;;;;;;4925253;28;90051;-47
2023/08/21 07:09:01;;;;;;;112.82;57.10;;;20.10;89.30;;;;;;4919112;28;91158;-46
2023/08/21 07:11:27;;;;;;;116.80;58.10;;;20.10;87.70;;;;;;4927816;28;93568;-49
2023/08/21 07:13:53;;;;;;;123.80;57.00;;;20.10;87.90;;;;;;4917888;28;90118;-43
2023/08/21 07:16:18;;;;;;;118.13;57.50;;;20.10;89.70;;;;;;4922248;28;90490;-48
2023/08/21 07:18:44;;;;;;;114.60;57.13;;;20.20;89.50;;;;;;4921713;28;94775;-44
2023/08/21 07:21:09;;;;;;;112.15;57.10;;;20.20;88.80;;;;;;4925238;28;91854;-43
2023/08/21 07:23:35;;;;;;;115.38;57.42;;;20.20;89.10;;;;;;4923203;28;90964;-47
2023/08/21 07:26:01;;;;;;;111.68;57.33;;;20.20;88.70;;;;;;4917966;28;89640;-45
2023/08/21 07:28:26;;;;;;;114.03;56.92;;;20.20;87.80;;;;;;4925220;28;90287;-46
2023/08/21 07:30:58;;;;;;;114.07;57.05;;;20.30;89.30;;;;;;4924445;28;91292;-42
2023/08/21 07:33:27;;;;;;;114.75;57.55;;;20.30;89.60;;;;;;4923497;28;91912;-44
2023/08/21 07:36:01;;;;;;;113.30;57.08;;;20.40;89.60;;;;;;4925876;28;94138;-41
2023/08/21 07:38:27;;;;;;;113.70;57.00;;;20.40;88.60;;;;;;4925308;28;91555;-44
2023/08/21 07:41:05;;;;;;;117.75;57.00;;;20.40;87.50;;;;;;4926607;28;90120;-39
2023/08/21 07:43:31;;;;;;;115.00;57.22;;;20.40;89.50;;;;;;4905275;28;90711;-42
2023/08/21 07:45:57;;;;;;;115.25;57.67;;;20.60;88.80;;;;;;4930384;28;89994;-42
2023/08/21 07:48:22;;;;;;;112.85;56.92;;;20.50;88.10;;;;;;4924206;28;90910;-40
2023/08/21 07:50:53;;;;;;;111.80;57.20;;;20.50;87.40;;;;;;4925432;28;89329;-42
2023/08/21 07:53:18;;;;;;;116.82;57.45;;;20.60;87.30;;;;;;4919435;28;90265;-44
2023/08/21 07:55:45;;;;;;;113.13;57.13;;;20.60;88.60;;;;;;4927688;28;93130;-40
2023/08/21 07:58:11;;;;;;;115.20;57.40;;;20.70;88.40;;;;;;4918736;28;92251;-43
2023/08/21 08:00:38;;;;;;;112.53;57.25;;;20.70;87.80;;;;;;4924103;28;91415;-41
2023/08/21 08:03:05;;;;;;;111.80;56.60;;;20.70;88.60;;;;;;4918148;28;91611;-41
2023/08/21 08:05:31;;;;;;;113.80;57.17;;;20.80;87.70;;;;;;4920704;28;90676;-41
2023/08/21 08:07:57;;;;;;;115.18;57.45;;;20.80;88.30;;;;;;4927145;28;90859;-42
2023/08/21 08:10:23;;;;;;;114.43;57.58;;;20.80;88.20;;;;;;4921060;28;90725;-45
2023/08/21 08:12:49;;;;;;;111.18;56.75;;;20.80;88.10;;;;;;4932117;28;90112;-42
2023/08/21 08:15:14;;;;;;;114.85;56.83;;;20.80;87.60;;;;;;4920737;28;92601;-44
2023/08/21 08:17:40;;;;;;;113.15;56.60;;;20.80;87.40;;;;;;4929864;28;93869;-46
2023/08/21 08:20:06;;;;;;;110.38;56.92;;;20.80;87.10;;;;;;4931001;28;90294;-41
2023/08/21 08:22:31;;;;;;;111.20;56.95;;;20.80;86.50;;;;;;4927392;28;91269;-44
2023/08/21 08:24:57;;;;;;;111.60;56.53;;;20.80;86.70;;;;;;4926456;28;93244;-45
2023/08/21 08:27:23;;;;;;;111.55;57.17;;;20.80;86.10;;;;;;4929821;28;91115;-44
2023/08/21 08:29:49;;;;;;;112.57;56.88;;;20.90;86.20;;;;;;4924872;28;93861;-45
2023/08/21 08:32:15;;;;;;;111.30;56.53;;;20.90;87.10;;;;;;4926659;28;90624;-42
2023/08/21 08:34:40;;;;;;;112.93;57.08;;;20.90;87.30;;;;;;4927027;28;94285;-42
2023/08/21 08:37:06;;;;;;;110.57;56.88;;;20.90;85.70;;;;;;4932713;28;90342;-44
2023/08/21 08:39:32;;;;;;;110.70;56.67;;;20.90;85.40;;;;;;4927754;28;89448;-41
2023/08/21 08:42:07;;;;;;;113.03;56.30;;;21.00;88.50;;;;;;4924114;28;90650;-41
2023/08/21 08:44:36;;;;;;;113.85;56.85;;;21.10;88.50;;;;;;4929432;28;91396;-41
2023/08/21 08:47:02;;;;;;;113.50;56.92;;;21.10;86.50;;;;;;4924747;28;90668;-47
2023/08/21 08:49:29;;;;;;;111.55;56.58;;;21.10;85.60;;;;;;4930581;28;90152;-43
2023/08/21 08:51:55;;;;;;;111.35;56.90;;;21.10;85.30;;;;;;4924383;28;89700;-45
2023/08/21 08:54:22;;;;;;;111.93;57.22;;;21.10;88.00;;;;;;4926488;28;90808;-46
2023/08/21 08:56:48;;;;;;;113.38;56.88;;;21.10;85.00;;;;;;4929978;28;90399;-46
2023/08/21 08:59:14;;;;;;;112.00;56.80;;;21.10;85.90;;;;;;4925198;28;90150;-42
2023/08/21 09:01:41;;;;;;;112.15;56.30;;;21.20;86.20;;;;;;4930982;28;89560;-45
2023/08/21 09:04:07;;;;;;;112.38;56.53;;;21.20;86.50;;;;;;4927944;28;89441;-45
2023/08/21 09:06:33;;;;;;;113.72;57.05;;;21.20;85.50;;;;;;4932041;28;90784;-45
2023/08/21 09:08:59;;;;;;;113.30;56.80;;;21.30;85.90;;;;;;4923623;28;90499;-46
2023/08/21 09:11:26;;;;;;;111.65;56.88;;;21.30;85.70;;;;;;4928694;28;91074;-47
2023/08/21 09:13:53;;;;;;;112.07;57.05;;;21.30;86.30;;;;;;4920823;28;91329;-46
2023/08/21 09:16:23;;;;;;;113.53;57.15;;;21.30;84.40;;;;;;4930371;28;89258;-43
2023/08/21 09:18:54;;;;;;;114.10;56.50;;;21.30;87.30;;;;;;4922821;28;93457;-46
2023/08/21 09:21:21;;;;;;;112.30;57.00;;;21.40;87.50;;;;;;4926113;28;91765;-42
2023/08/21 09:23:48;;;;;;;113.97;56.95;;;21.50;85.50;;;;;;4932145;28;90756;-44
2023/08/21 09:26:23;;;;;;;110.40;56.38;;;21.50;86.20;;;;;;4921697;28;93434;-50
2023/08/21 09:28:51;;;;;;;112.22;56.88;;;21.50;84.90;;;;;;4928063;28;90954;-47
2023/08/21 09:31:21;;;;;;;111.63;56.85;;;21.60;85.80;;;;;;4931543;28;91766;-50
2023/08/21 09:34:04;;;;;;;111.07;56.38;;;21.60;86.30;;;;;;4929701;28;92962;-50
2023/08/21 09:36:31;;;;;;;111.20;56.70;;;21.70;84.40;;;;;;4929907;28;93246;-44
2023/08/21 09:38:56;;;;;;;110.38;56.45;;;21.60;85.50;;;;;;4920931;28;90236;-48
2023/08/21 09:41:23;;;;;;;111.78;57.03;;;21.60;84.60;;;;;;4928886;28;90438;-43
2023/08/21 09:43:49;;;;;;;114.65;57.03;;;21.70;85.50;;;;;;4925910;28;92335;-46
2023/08/21 09:46:25;;;;;;;112.15;56.55;;;21.70;85.40;;;;;;4929187;28;89386;-44
2023/08/21 09:48:54;;;;;;;111.50;56.63;;;21.70;84.10;;;;;;4927029;28;90758;-48
2023/08/21 09:51:21;;;;;;;110.60;56.42;;;21.80;84.60;;;;;;4924437;28;89580;-47
2023/08/21 09:53:50;;;;;;;110.97;56.60;;;21.80;83.00;;;;;;4932874;28;90125;-48
2023/08/21 09:56:19;;;;;;;113.55;56.95;;;21.80;83.30;;;;;;4928600;28;93598;-48
2023/08/21 09:58:47;;;;;;;111.55;56.35;;;21.90;83.70;;;;;;4926867;28;91386;-44
2023/08/21 10:01:16;;;;;;;109.75;56.28;;;21.90;83.70;;;;;;4930492;28;90376;-44
2023/08/21 10:03:47;;;;;;;111.75;57.00;;;22.00;84.80;;;;;;4920347;28;91208;-44
2023/08/21 10:06:16;;;;;;;112.88;56.63;;;22.00;84.50;;;;;;4929556;28;90274;-46
2023/08/21 10:08:45;;;;;;;111.10;56.53;;;22.00;83.20;;;;;;4925294;28;92072;-45
2023/08/21 10:11:11;;;;;;;110.50;56.53;;;22.10;84.40;;;;;;4927393;28;90516;-44
2023/08/21 10:13:38;;;;;;;112.13;57.00;;;22.10;83.50;;;;;;4928769;28;89691;-44
2023/08/21 10:16:05;;;;;;;110.93;56.40;;;22.20;84.50;;;;;;4928609;28;90709;-42
2023/08/21 10:18:35;;;;;;;111.03;56.33;;;22.20;82.60;;;;;;4924930;28;90049;-49
2023/08/21 10:21:18;;;;;;;112.27;56.90;;;22.20;82.90;;;;;;4923840;28;90115;-43
2023/08/21 10:23:51;;;;;;;111.50;56.63;;;22.30;83.40;;;;;;4927581;28;89981;-47
2023/08/21 10:26:21;;;;;;;111.57;56.47;;;22.40;83.30;;;;;;4918611;28;91387;-44
2023/08/21 10:29:06;;;;;;;110.47;56.70;;;22.30;81.70;;;;;;4932687;28;90298;-47
2023/08/21 10:31:38;;;;;;;114.22;56.92;;;22.40;82.50;;;;;;4927226;28;89714;-42
2023/08/21 10:34:08;;;;;;;111.82;56.78;;;22.40;82.40;;;;;;4927534;28;90116;-47
2023/08/21 10:36:38;;;;;;;111.80;56.97;;;22.50;83.10;;;;;;4926343;28;91062;-47
2023/08/21 10:39:04;;;;;;;111.43;57.00;;;22.50;85.30;;;;;;4928193;28;91322;-44
2023/08/21 10:41:30;;;;;;;112.68;57.25;;;22.70;85.30;;;;;;4921894;28;89854;-46
2023/08/21 10:43:55;;;;;;;112.43;56.55;;;22.70;82.40;;;;;;4932980;28;89171;-43
2023/08/21 10:46:21;;;;;;;111.65;56.95;;;22.70;81.10;;;;;;4923567;28;95754;-44
2023/08/21 10:48:47;;;;;;;112.47;56.65;;;22.70;80.90;;;;;;4929173;28;91839;-44
2023/08/21 10:51:13;;;;;;;113.05;57.22;;;22.60;80.30;;;;;;4925185;28;90555;-42
2023/08/21 10:53:41;;;;;;;111.85;56.95;;;22.70;80.40;;;;;;4929382;28;90001;-44
2023/08/21 10:56:07;;;;;;;114.28;57.22;;;22.70;81.60;;;;;;4919754;28;96057;-45
2023/08/21 10:58:41;;;;;;;111.90;57.15;;;22.80;82.10;;;;;;4929846;28;89484;-45
2023/08/21 11:01:06;;;;;;;111.47;56.80;;;22.80;80.10;;;;;;4925321;28;91825;-44
2023/08/21 11:03:32;;;;;;;111.63;57.10;;;22.90;82.00;;;;;;4919298;28;91523;-44
2023/08/21 11:06:05;;;;;;;112.78;57.15;;;23.00;84.60;;;;;;4926007;28;93974;-44
2023/08/21 11:08:33;;;;;;;113.32;57.15;;;23.00;81.40;;;;;;4923040;28;93107;-44
2023/08/21 11:10:59;;;;;;;111.25;56.85;;;23.00;80.40;;;;;;4928120;28;89912;-44
2023/08/21 11:13:26;;;;;;;113.28;57.00;;;23.00;80.00;;;;;;4924176;28;90058;-44
2023/08/21 11:16:11;;;;;;;112.85;57.55;;;23.00;79.80;;;;;;4929215;28;91100;-44
2023/08/21 11:18:38;;;;;;;114.15;57.35;;;23.10;79.40;;;;;;4926095;28;91689;-49
2023/08/21 11:21:11;;;;;;;111.88;56.72;;;23.10;80.20;;;;;;4921756;28;91560;-46
2023/08/21 11:23:39;;;;;;;112.00;56.95;;;23.10;79.20;;;;;;4927280;28;89736;-44
2023/08/21 11:26:05;;;;;;;112.75;57.30;;;23.20;79.10;;;;;;4927678;28;90763;-46
2023/08/21 11:28:31;;;;;;;113.18;57.35;;;23.20;81.90;;;;;;4930730;28;89485;-43
2023/08/21 11:30:58;;;;;;;111.28;56.97;;;23.30;84.10;;;;;;4923984;28;90113;-44
2023/08/21 11:33:25;;;;;;;112.50;57.17;;;23.30;80.60;;;;;;4927099;28;89053;-44
2023/08/21 11:35:53;;;;;;;113.15;57.25;;;23.30;79.80;;;;;;4931646;28;90516;-47
2023/08/21 11:38:20;;;;;;;112.15;57.22;;;23.30;78.80;;;;;;4924134;28;91937;-45
2023/08/21 11:40:56;;;;;;;111.85;57.55;;;23.30;77.70;;;;;;4927843;28;90894;-43
2023/08/21 11:43:33;;;;;;;114.50;57.08;;;23.40;79.00;;;;;;4928702;28;89718;-43
2023/08/21 11:45:58;;;;;;;112.63;56.97;;;23.40;82.20;;;;;;4923467;28;89671;-44
2023/08/21 11:48:24;;;;;;;112.55;57.35;;;23.40;77.80;;;;;;4925977;28;89496;-42
2023/08/21 11:50:50;;;;;;;111.93;57.38;;;23.40;78.10;;;;;;4926961;28;93498;-50
2023/08/21 11:53:27;;;;;;;113.35;57.22;;;23.50;78.20;;;;;;4928045;28;89782;-48
2023/08/21 11:55:52;;;;;;;111.43;56.75;;;23.50;78.70;;;;;;4927905;28;91848;-47
2023/08/21 11:58:19;;;;;;;112.75;57.40;;;23.60;78.20;;;;;;4926332;28;90685;-49
2023/08/21 12:00:46;;;;;;;112.32;57.60;;;23.60;80.10;;;;;;4928174;28;89879;-47
2023/08/21 12:03:18;;;;;;;111.47;57.28;;;23.60;78.50;;;;;;4921630;28;89817;-47
2023/08/21 12:05:44;;;;;;;111.85;57.15;;;23.60;77.10;;;;;;4924921;28;91996;-47
2023/08/21 12:08:09;;;;;;;111.65;57.33;;;23.60;77.40;;;;;;4923203;28;91214;-47
2023/08/21 12:10:36;;;;;;;112.55;57.22;;;23.70;77.80;;;;;;4928188;28;89633;-50
2023/08/21 12:13:01;;;;;;;112.57;57.40;;;23.70;78.30;;;;;;4923087;28;89501;-49
2023/08/21 12:15:27;;;;;;;111.82;57.20;;;23.80;79.20;;;;;;4927279;28;90374;-45
2023/08/21 12:17:52;;;;;;;111.45;57.13;;;23.80;77.40;;;;;;4923445;28;91117;-46
2023/08/21 12:20:18;;;;;;;111.88;57.05;;;23.80;77.60;;;;;;4923788;28;90331;-47